»·PEaware :: AAL1097 KBUF-KPWM

AAL1097 :: KBUF-KPWM

FLIGHT INFORMATION

Flight Status: Arrived
Operator:
American Airlines
More flights by this operator :: More flights under this callsign
Pilot: Adam A. (5112)
Aircraft: BOEING 767-300
(B763)
More flights by this aircraft type
Origin: KBUF Buffalo Niagara Intl
United States
Destination: KPWM Portland Intl
United States
More flights between these airports :: More routes between these airports
Route: GEE CAM CDOGG3
File this flight plan on PilotEdge
Remarks:
Altitude:
(Current/Filed)
35,000ft
Speed:
(Current/Filed)
450kts
Departed: 16-Jan-16 09:28 AM
Arrived: 16-Jan-16 10:32 AM
Distance/Time
Traveled:
370nm/1:04
Distance/Time
To Go:
Arrived

Flight Plot

Page will automatically refresh every two minutes.


Map Options




Map Legend


Flown Route
Filed Route
Departure Airport
Arrival Airport
Navaid (VOR, NDB)
Fix

Horizontal Profiles

Position Reports

Time Latitude Longitude Heading Altitude Ground
Speed
16-Jan-16 09:22 42.812611 -78.353928 89 18735ft 423kts
16-Jan-16 09:23 42.818394 -78.195576 89 21366ft 443kts
16-Jan-16 09:24 42.824124 -78.032156 90 23691ft 462kts
16-Jan-16 09:25 42.829979 -77.861621 90 25787ft 479kts
16-Jan-16 09:26 42.837033 -77.686131 89 27635ft 495kts
16-Jan-16 09:27 42.846942 -77.504107 89 29359ft 510kts
16-Jan-16 09:28 42.856815 -77.315064 90 30966ft 523kts
16-Jan-16 09:29 42.866330 -77.127054 90 32831ft 523kts
16-Jan-16 09:30 42.875705 -76.935223 90 34508ft 521kts
16-Jan-16 09:31 42.885241 -76.744666 91 34646ft 518kts
16-Jan-16 09:32 42.894048 -76.552726 91 34649ft 518kts
16-Jan-16 09:33 42.902300 -76.364597 91 34652ft 518kts
16-Jan-16 09:34 42.910152 -76.178606 91 34654ft 518kts
16-Jan-16 09:35 42.917621 -75.994640 91 34657ft 518kts
16-Jan-16 09:36 42.925206 -75.810605 92 34645ft 517kts
16-Jan-16 09:37 42.932310 -75.625830 92 34648ft 517kts
16-Jan-16 09:38 42.938940 -75.440671 92 34651ft 517kts
16-Jan-16 09:39 42.945306 -75.254110 92 34654ft 517kts
16-Jan-16 09:40 42.951391 -75.066856 92 34656ft 517kts
16-Jan-16 09:41 42.957235 -74.878369 93 34651ft 516kts
16-Jan-16 09:42 42.963325 -74.688710 93 34648ft 516kts
16-Jan-16 09:43 42.968600 -74.498145 93 34651ft 516kts
16-Jan-16 09:44 42.973384 -74.313434 93 34653ft 516kts
16-Jan-16 09:45 42.977925 -74.126457 93 34656ft 516kts
16-Jan-16 09:46 42.982158 -73.939912 93 34658ft 516kts
16-Jan-16 09:47 42.986625 -73.753024 94 34648ft 515kts
16-Jan-16 09:48 42.990375 -73.563673 94 34650ft 515kts
16-Jan-16 09:49 42.993914 -73.375255 91 34650ft 516kts
16-Jan-16 09:50 43.028432 -73.190028 75 34657ft 526kts
16-Jan-16 09:51 43.068092 -73.011661 75 33338ft 507kts
16-Jan-16 09:52 43.106051 -72.840228 75 31214ft 498kts
16-Jan-16 09:53 43.136698 -72.700966 76 29483ft 495kts
16-Jan-16 09:54 43.173209 -72.532425 75 27407ft 486kts
16-Jan-16 09:55 43.208501 -72.368095 75 25389ft 473kts
16-Jan-16 09:56 43.243076 -72.205867 75 23411ft 460kts
16-Jan-16 09:57 43.267715 -72.089538 75 22452ft 439kts
16-Jan-16 09:58 43.303671 -71.918592 75 19922ft 418kts
16-Jan-16 09:59 43.326724 -71.809803 71 18652ft 409kts
16-Jan-16 10:00 43.356719 -71.666064 71 17027ft 390kts
16-Jan-16 10:01 43.384628 -71.530802 72 15518ft 378kts
16-Jan-16 10:02 43.411255 -71.400820 72 14035ft 362kts
16-Jan-16 10:03 43.437625 -71.271311 75 12706ft 367kts
16-Jan-16 10:04 43.463864 -71.141879 73 11387ft 356kts
16-Jan-16 10:05 43.496297 -71.020781 69 11023ft 354kts
16-Jan-16 10:06 43.528666 -70.899925 70 11056ft 355kts
16-Jan-16 10:07 43.534884 -70.776824 96 10932ft 313kts
16-Jan-16 10:08 43.529652 -70.677206 98 10403ft 224kts
16-Jan-16 10:09 43.524313 -70.586852 97 9908ft 286kts
16-Jan-16 10:10 43.518256 -70.476341 97 9110ft 296kts
16-Jan-16 10:11 43.511835 -70.364939 96 8317ft 291kts
16-Jan-16 10:12 43.505384 -70.255158 97 7615ft 288kts
16-Jan-16 10:13 43.499165 -70.150290 97 6863ft 238kts
16-Jan-16 10:14 43.493720 -70.061141 97 6680ft 242kts
16-Jan-16 10:15 43.531399 -69.996171 25 5857ft 229kts
16-Jan-16 10:16 43.581460 -69.973734 317 5081ft 177kts
16-Jan-16 10:17 43.607825 -70.015211 299 5170ft 153kts
16-Jan-16 10:18 43.627552 -70.064153 272 4939ft 150kts
16-Jan-16 10:19 43.614687 -70.106388 179 4075ft 166kts
16-Jan-16 10:20 43.579326 -70.069980 103 3327ft 186kts
16-Jan-16 10:21 43.610001 -70.042288 315 3173ft 176kts
16-Jan-16 10:22 43.629968 -70.094286 273 2986ft 148kts
16-Jan-16 10:23 43.633681 -70.147341 278 1903ft 157kts
16-Jan-16 10:24 43.637713 -70.206160 278 1391ft 147kts
16-Jan-16 10:25 43.641261 -70.258050 279 703ft 135kts
16-Jan-16 10:26 43.644531 -70.308493 278 88ft 106kts
16-Jan-16 10:27 43.646351 -70.326570 336 88ft 29kts
16-Jan-16 10:28 43.648405 -70.324621 86 88ft 31kts
16-Jan-16 10:29 43.646198 -70.314758 93 88ft 29kts
16-Jan-16 10:30 43.646504 -70.310682 3 88ft 2kts
16-Jan-16 10:31 43.646757 -70.310690 355 88ft 0kts
16-Jan-16 10:32 43.646757 -70.310690 355 88ft 0kts
16-Jan-16 10:33 43.646757 -70.310690 355 88ft 0kts
16-Jan-16 10:34 43.644723 -70.310967 279 88ft 91kts
16-Jan-16 10:35 43.644453 -70.307055 275 89ft 113kts
16-Jan-16 10:36 43.646757 -70.310690 355 88ft 0kts

Navigation Log

Ident Type
Flight plan parsing failed, navigation log unavailable